Flight Track Log - Related Links

Times and Time Zones

All times are in EDT time to prevent confusion due to time zone crossing. See the KAP66 flight status page for this flight to view local times or setup timezone preferences in your user account.

Time Position Orientation Groundspeed Altitude Reporting Facility
EDT Latitude Longitude Course Direction KTS MPH feet Rate Location/Type
Thu 04:26:14 PM 42.3500 -70.9500 124° Southeast 119 137 900  Level KA90
Thu 04:27:08 PM 42.3333 -70.9167 124° Southeast 127 146 1,000  Climbing KA90
Thu 04:28:15 PM 42.3167 -70.8667 114° Southeast 132 152 900  Descending KA90
Thu 04:29:15 PM 42.3000 -70.8167 114° Southeast 136 157 1,000 100 Climbing KA90
Thu 04:31:00 PM 42.2629 -70.7388 114° Southeast  Level FlightAware Approximate
Thu 04:38:00 PM 42.1384 -70.3970 116° Southeast  Level FlightAware Approximate
Thu 04:39:00 PM 42.1215 -70.3477 114° Southeast  Level FlightAware Approximate
Thu 04:40:00 PM 42.1050 -70.2981 114° Southeast  Level FlightAware Approximate
Thu 04:41:00 PM 42.0886 -70.2485 114° Southeast  Level FlightAware Approximate
Thu 04:42:00 PM 42.0720 -70.1989 114° Southeast  Level FlightAware Approximate
Thu 04:43:00 PM 42.0555 -70.1494 114° Southeast  Level FlightAware Approximate
Thu 04:44:00 PM 42.0390 -70.0999 114° Southeast  Level FlightAware Approximate
Thu 04:45:00 PM 42.0224 -70.0504 114° Southeast  Level FlightAware Approximate
Thu 04:46:00 PM 41.9903 -70.0333 180° South  Level FlightAware Approximate
Thu 04:47:00 PM 41.9500 -70.0333 180° South  Level FlightAware Approximate
Thu 04:48:00 PM 41.9097 -70.0333 180° South  Level FlightAware Approximate
Thu 04:49:00 PM 41.8694 -70.0333 180° South  Level FlightAware Approximate
Thu 04:50:00 PM 41.8290 -70.0333 180° South  Level FlightAware Approximate
Thu 04:51:00 PM 41.7887 -70.0333 180° South  Level FlightAware Approximate
Thu 04:52:00 PM 41.7484 -70.0333 180° South  Level FlightAware Approximate
Thu 04:53:00 PM 41.7081 -70.0333 180° South  Level FlightAware Approximate
Thu 04:54:00 PM 41.6678 -70.0333 180° South  Level FlightAware Approximate
Thu 04:55:00 PM 41.6275 -70.0333 180° South  Level FlightAware Approximate
Thu 04:56:00 PM 41.5873 -70.0359 189° South  Level FlightAware Approximate
Thu 04:57:00 PM 41.5474 -70.0439 189° South  Level FlightAware Approximate
Thu 04:58:00 PM 41.5075 -70.0500 180° South  Level FlightAware Approximate
Thu 04:59:00 PM 41.4672 -70.0500 180° South  Level FlightAware Approximate
Thu 05:00:00 PM 41.4268 -70.0500 180° South  Level FlightAware Approximate
Thu 05:01:00 PM 41.3865 -70.0500 180° South  Level FlightAware Approximate
Thu 05:02:00 PM 41.3462 -70.0500 180° South  Level FlightAware Approximate
Thu 05:03:00 PM 41.3059 -70.0500 180° South  Level FlightAware Approximate
Thu 05:04:00 PM 41.2656 -70.0500 180° South  Level FlightAware Approximate
Thu 05:05:00 PM 41.2500 -70.0500 180° South  Level FlightAware Approximate
Thu 05:06:00 PM 41.2531 -70.0603 180° South  Level Estimated
Thu 05:07:00 PM 41.2531 -70.0603 180° South  Level Estimated
Thu 05:08:00 PM 41.2531 -70.0603 180° South  Level Estimated
Thu 05:09:00 PM 41.2531 -70.0603 180° South  Level Estimated
Thu 05:10:00 PM 41.2531 -70.0603 180° South  Level Estimated
Thu 05:11:00 PM 41.2531 -70.0603 180° South  Level Estimated
Thu 05:12:00 PM 41.2531 -70.0603 180° South  Level Estimated
Thu 05:13:00 PM 41.2531 -70.0603 180° South  Level Estimated

Login

Don't have an account? Register now (free) for customized features, flight alerts, and more!